sensor_id;sensor_type;location;lat;lon;timestamp;temperature;humidity
10411;DHT22;5251;52.112;8.606;2022-10-15T00:00:49;16.00;99.90
10411;DHT22;5251;52.112;8.606;2022-10-15T00:03:15;16.00;99.90
10411;DHT22;5251;52.112;8.606;2022-10-15T00:05:41;15.90;99.90
10411;DHT22;5251;52.112;8.606;2022-10-15T00:08:08;15.80;99.90
10411;DHT22;5251;52.112;8.606;2022-10-15T00:10:35;15.80;99.90
10411;DHT22;5251;52.112;8.606;2022-10-15T00:13:02;15.70;99.90
10411;DHT22;5251;52.112;8.606;2022-10-15T00:15:28;15.70;99.90
10411;DHT22;5251;52.112;8.606;2022-10-15T00:17:54;15.60;99.90
10411;DHT22;5251;52.112;8.606;2022-10-15T00:20:20;15.60;99.90
10411;DHT22;5251;52.112;8.606;2022-10-15T00:22:46;15.50;99.90
10411;DHT22;5251;52.112;8.606;2022-10-15T00:25:11;15.50;99.90
10411;DHT22;5251;52.112;8.606;2022-10-15T00:27:37;15.30;99.90
10411;DHT22;5251;52.112;8.606;2022-10-15T00:30:04;15.30;99.90
10411;DHT22;5251;52.112;8.606;2022-10-15T00:32:30;15.30;99.90
10411;DHT22;5251;52.112;8.606;2022-10-15T00:34:56;15.20;99.90
10411;DHT22;5251;52.112;8.606;2022-10-15T00:37:22;15.20;99.90
10411;DHT22;5251;52.112;8.606;2022-10-15T00:39:48;15.10;99.90
10411;DHT22;5251;52.112;8.606;2022-10-15T00:42:14;15.10;99.90
10411;DHT22;5251;52.112;8.606;2022-10-15T00:44:50;15.00;99.90
10411;DHT22;5251;52.112;8.606;2022-10-15T00:47:18;15.00;99.90
10411;DHT22;5251;52.112;8.606;2022-10-15T00:55:21;14.90;99.90
10411;DHT22;5251;52.112;8.606;2022-10-15T00:57:49;14.90;99.90
10411;DHT22;5251;52.112;8.606;2022-10-15T01:00:16;14.90;99.90
10411;DHT22;5251;52.112;8.606;2022-10-15T01:02:43;14.90;99.90
10411;DHT22;5251;52.112;8.606;2022-10-15T01:05:10;14.80;99.90
10411;DHT22;5251;52.112;8.606;2022-10-15T01:07:35;14.90;99.90
10411;DHT22;5251;52.112;8.606;2022-10-15T01:10:03;14.80;99.90
10411;DHT22;5251;52.112;8.606;2022-10-15T01:12:41;14.90;99.90
10411;DHT22;5251;52.112;8.606;2022-10-15T01:15:20;14.80;99.90
10411;DHT22;5251;52.112;8.606;2022-10-15T01:17:52;14.90;99.90
10411;DHT22;5251;52.112;8.606;2022-10-15T01:28:41;14.90;99.90
10411;DHT22;5251;52.112;8.606;2022-10-15T01:34:02;14.90;99.90
10411;DHT22;5251;52.112;8.606;2022-10-15T01:39:38;14.90;99.90
10411;DHT22;5251;52.112;8.606;2022-10-15T01:42:14;14.90;99.90
10411;DHT22;5251;52.112;8.606;2022-10-15T01:44:52;14.90;99.90
10411;DHT22;5251;52.112;8.606;2022-10-15T01:47:23;14.90;99.90
10411;DHT22;5251;52.112;8.606;2022-10-15T01:49:52;14.80;99.90
10411;DHT22;5251;52.112;8.606;2022-10-15T01:52:22;14.90;99.90
10411;DHT22;5251;52.112;8.606;2022-10-15T01:54:51;14.70;99.90
10411;DHT22;5251;52.112;8.606;2022-10-15T01:57:18;14.70;99.90
10411;DHT22;5251;52.112;8.606;2022-10-15T01:59:45;14.70;99.90
10411;DHT22;5251;52.112;8.606;2022-10-15T02:02:11;14.70;99.90
10411;DHT22;5251;52.112;8.606;2022-10-15T02:04:37;14.70;99.90
10411;DHT22;5251;52.112;8.606;2022-10-15T02:07:14;14.70;99.90
10411;DHT22;5251;52.112;8.606;2022-10-15T02:12:30;14.60;99.90
10411;DHT22;5251;52.112;8.606;2022-10-15T02:15:16;14.50;99.90
10411;DHT22;5251;52.112;8.606;2022-10-15T02:18:20;14.60;99.90
10411;DHT22;5251;52.112;8.606;2022-10-15T02:20:54;14.50;99.90
10411;DHT22;5251;52.112;8.606;2022-10-15T02:23:30;14.50;99.90
10411;DHT22;5251;52.112;8.606;2022-10-15T02:25:58;14.50;99.90
10411;DHT22;5251;52.112;8.606;2022-10-15T02:28:26;14.40;99.90
10411;DHT22;5251;52.112;8.606;2022-10-15T02:30:55;14.40;99.90
10411;DHT22;5251;52.112;8.606;2022-10-15T02:33:22;14.40;99.90
10411;DHT22;5251;52.112;8.606;2022-10-15T02:35:49;14.40;99.90
10411;DHT22;5251;52.112;8.606;2022-10-15T02:38:18;14.30;99.90
10411;DHT22;5251;52.112;8.606;2022-10-15T02:40:45;14.30;99.90
10411;DHT22;5251;52.112;8.606;2022-10-15T02:43:13;14.30;99.90
10411;DHT22;5251;52.112;8.606;2022-10-15T02:45:39;14.30;99.90
10411;DHT22;5251;52.112;8.606;2022-10-15T02:48:06;14.30;99.90
10411;DHT22;5251;52.112;8.606;2022-10-15T02:50:32;14.30;99.90
10411;DHT22;5251;52.112;8.606;2022-10-15T02:52:58;14.30;99.90
10411;DHT22;5251;52.112;8.606;2022-10-15T02:55:24;14.20;99.90
10411;DHT22;5251;52.112;8.606;2022-10-15T02:57:50;14.20;99.90
10411;DHT22;5251;52.112;8.606;2022-10-15T03:00:16;14.20;99.90
10411;DHT22;5251;52.112;8.606;2022-10-15T03:02:43;14.10;99.90
10411;DHT22;5251;52.112;8.606;2022-10-15T03:05:09;14.10;99.90
10411;DHT22;5251;52.112;8.606;2022-10-15T03:07:35;14.10;99.90
10411;DHT22;5251;52.112;8.606;2022-10-15T03:10:00;14.10;99.90
10411;DHT22;5251;52.112;8.606;2022-10-15T03:12:26;14.10;99.90
10411;DHT22;5251;52.112;8.606;2022-10-15T03:14:52;14.00;99.90
10411;DHT22;5251;52.112;8.606;2022-10-15T03:17:18;14.10;99.90
10411;DHT22;5251;52.112;8.606;2022-10-15T03:19:43;14.10;99.90
10411;DHT22;5251;52.112;8.606;2022-10-15T03:22:09;14.20;99.90
10411;DHT22;5251;52.112;8.606;2022-10-15T03:24:34;14.20;99.90
10411;DHT22;5251;52.112;8.606;2022-10-15T03:27:00;14.30;99.90
10411;DHT22;5251;52.112;8.606;2022-10-15T03:29:26;14.30;99.90
10411;DHT22;5251;52.112;8.606;2022-10-15T03:31:51;14.30;99.90
10411;DHT22;5251;52.112;8.606;2022-10-15T03:34:17;14.30;99.90
10411;DHT22;5251;52.112;8.606;2022-10-15T03:36:43;14.30;99.90
10411;DHT22;5251;52.112;8.606;2022-10-15T03:39:10;14.30;99.90
10411;DHT22;5251;52.112;8.606;2022-10-15T03:41:36;14.40;99.90
10411;DHT22;5251;52.112;8.606;2022-10-15T03:44:03;14.40;99.90
10411;DHT22;5251;52.112;8.606;2022-10-15T03:46:29;14.40;99.90
10411;DHT22;5251;52.112;8.606;2022-10-15T03:48:55;14.40;99.90
10411;DHT22;5251;52.112;8.606;2022-10-15T03:51:21;14.40;99.90
10411;DHT22;5251;52.112;8.606;2022-10-15T03:53:47;14.40;99.90
10411;DHT22;5251;52.112;8.606;2022-10-15T03:56:12;14.50;99.90
10411;DHT22;5251;52.112;8.606;2022-10-15T03:58:38;14.40;99.90
10411;DHT22;5251;52.112;8.606;2022-10-15T04:01:11;14.40;99.90
10411;DHT22;5251;52.112;8.606;2022-10-15T04:03:38;14.40;99.90
10411;DHT22;5251;52.112;8.606;2022-10-15T04:06:04;14.30;99.90
10411;DHT22;5251;52.112;8.606;2022-10-15T04:08:29;14.30;99.90
10411;DHT22;5251;52.112;8.606;2022-10-15T04:10:55;14.20;99.90
10411;DHT22;5251;52.112;8.606;2022-10-15T04:13:21;14.20;99.90
10411;DHT22;5251;52.112;8.606;2022-10-15T04:15:46;14.20;99.90
10411;DHT22;5251;52.112;8.606;2022-10-15T04:18:12;14.10;99.90
10411;DHT22;5251;52.112;8.606;2022-10-15T04:20:38;14.10;99.90
10411;DHT22;5251;52.112;8.606;2022-10-15T04:23:03;14.10;99.90
10411;DHT22;5251;52.112;8.606;2022-10-15T04:25:29;14.00;99.90
10411;DHT22;5251;52.112;8.606;2022-10-15T04:27:54;14.00;99.90
10411;DHT22;5251;52.112;8.606;2022-10-15T04:30:20;14.00;99.90
10411;DHT22;5251;52.112;8.606;2022-10-15T04:32:46;14.00;99.90
10411;DHT22;5251;52.112;8.606;2022-10-15T04:35:11;14.00;99.90
10411;DHT22;5251;52.112;8.606;2022-10-15T04:37:37;13.90;99.90
10411;DHT22;5251;52.112;8.606;2022-10-15T04:40:03;13.90;99.90
10411;DHT22;5251;52.112;8.606;2022-10-15T04:42:29;13.90;99.90
10411;DHT22;5251;52.112;8.606;2022-10-15T04:44:55;13.90;99.90
10411;DHT22;5251;52.112;8.606;2022-10-15T04:47:21;13.90;99.90
10411;DHT22;5251;52.112;8.606;2022-10-15T04:49:47;13.90;99.90
10411;DHT22;5251;52.112;8.606;2022-10-15T04:52:12;13.90;99.90
10411;DHT22;5251;52.112;8.606;2022-10-15T04:54:38;13.90;99.90
10411;DHT22;5251;52.112;8.606;2022-10-15T04:57:04;13.90;99.90
10411;DHT22;5251;52.112;8.606;2022-10-15T04:59:30;13.90;99.90
10411;DHT22;5251;52.112;8.606;2022-10-15T05:01:56;13.90;99.90
10411;DHT22;5251;52.112;8.606;2022-10-15T05:04:21;13.80;99.90
10411;DHT22;5251;52.112;8.606;2022-10-15T05:06:47;13.80;99.90
10411;DHT22;5251;52.112;8.606;2022-10-15T05:09:13;13.70;99.90
10411;DHT22;5251;52.112;8.606;2022-10-15T05:11:38;13.80;99.90
10411;DHT22;5251;52.112;8.606;2022-10-15T05:14:05;13.70;99.90
10411;DHT22;5251;52.112;8.606;2022-10-15T05:16:31;13.70;99.90
10411;DHT22;5251;52.112;8.606;2022-10-15T05:19:06;13.70;99.90
10411;DHT22;5251;52.112;8.606;2022-10-15T05:21:33;13.70;99.90
10411;DHT22;5251;52.112;8.606;2022-10-15T05:23:59;13.60;99.90
10411;DHT22;5251;52.112;8.606;2022-10-15T05:26:27;13.60;99.90
10411;DHT22;5251;52.112;8.606;2022-10-15T05:28:55;13.60;99.90
10411;DHT22;5251;52.112;8.606;2022-10-15T05:31:22;13.60;99.90
10411;DHT22;5251;52.112;8.606;2022-10-15T05:33:49;13.60;99.90
10411;DHT22;5251;52.112;8.606;2022-10-15T05:38:44;13.40;99.90
10411;DHT22;5251;52.112;8.606;2022-10-15T05:41:10;13.40;99.90
10411;DHT22;5251;52.112;8.606;2022-10-15T05:43:35;13.30;99.90
10411;DHT22;5251;52.112;8.606;2022-10-15T05:46:01;13.30;99.90
10411;DHT22;5251;52.112;8.606;2022-10-15T05:48:27;13.30;99.90
10411;DHT22;5251;52.112;8.606;2022-10-15T05:50:52;13.30;99.90
10411;DHT22;5251;52.112;8.606;2022-10-15T05:53:18;13.20;99.90
10411;DHT22;5251;52.112;8.606;2022-10-15T05:55:44;13.20;99.90
10411;DHT22;5251;52.112;8.606;2022-10-15T05:58:10;13.20;99.90
10411;DHT22;5251;52.112;8.606;2022-10-15T06:00:35;13.20;99.90
10411;DHT22;5251;52.112;8.606;2022-10-15T06:03:01;13.20;99.90
10411;DHT22;5251;52.112;8.606;2022-10-15T06:05:27;13.20;99.90
10411;DHT22;5251;52.112;8.606;2022-10-15T06:07:52;13.30;99.90
10411;DHT22;5251;52.112;8.606;2022-10-15T06:10:18;13.30;99.90
10411;DHT22;5251;52.112;8.606;2022-10-15T06:12:48;13.30;99.90
10411;DHT22;5251;52.112;8.606;2022-10-15T06:15:15;13.30;99.90
10411;DHT22;5251;52.112;8.606;2022-10-15T06:17:41;13.40;99.90
10411;DHT22;5251;52.112;8.606;2022-10-15T06:20:06;13.40;99.90
10411;DHT22;5251;52.112;8.606;2022-10-15T06:22:32;13.50;99.90
10411;DHT22;5251;52.112;8.606;2022-10-15T06:24:58;13.60;99.90
10411;DHT22;5251;52.112;8.606;2022-10-15T06:27:24;13.60;99.90
10411;DHT22;5251;52.112;8.606;2022-10-15T06:29:49;13.70;99.90
10411;DHT22;5251;52.112;8.606;2022-10-15T06:32:15;13.80;99.90
10411;DHT22;5251;52.112;8.606;2022-10-15T06:34:40;13.90;99.90
10411;DHT22;5251;52.112;8.606;2022-10-15T06:37:06;14.00;99.90
10411;DHT22;5251;52.112;8.606;2022-10-15T06:39:31;14.00;99.90
10411;DHT22;5251;52.112;8.606;2022-10-15T06:41:57;14.10;99.90
10411;DHT22;5251;52.112;8.606;2022-10-15T06:44:22;14.20;99.90
10411;DHT22;5251;52.112;8.606;2022-10-15T06:46:49;14.30;99.90
10411;DHT22;5251;52.112;8.606;2022-10-15T06:49:14;14.40;99.90
10411;DHT22;5251;52.112;8.606;2022-10-15T06:51:40;14.50;99.90
10411;DHT22;5251;52.112;8.606;2022-10-15T06:54:05;14.60;99.90
10411;DHT22;5251;52.112;8.606;2022-10-15T06:56:31;14.70;99.90
10411;DHT22;5251;52.112;8.606;2022-10-15T06:58:56;14.70;99.90
10411;DHT22;5251;52.112;8.606;2022-10-15T07:01:22;14.80;99.90
10411;DHT22;5251;52.112;8.606;2022-10-15T07:03:49;14.90;99.90
10411;DHT22;5251;52.112;8.606;2022-10-15T07:06:14;15.00;99.90
10411;DHT22;5251;52.112;8.606;2022-10-15T07:08:40;15.00;99.90
10411;DHT22;5251;52.112;8.606;2022-10-15T07:11:06;15.00;99.90
10411;DHT22;5251;52.112;8.606;2022-10-15T07:13:33;15.10;99.90
10411;DHT22;5251;52.112;8.606;2022-10-15T07:16:07;15.10;99.90
10411;DHT22;5251;52.112;8.606;2022-10-15T07:18:33;15.20;99.90
10411;DHT22;5251;52.112;8.606;2022-10-15T07:21:00;15.30;99.90
10411;DHT22;5251;52.112;8.606;2022-10-15T07:23:26;15.30;99.90
10411;DHT22;5251;52.112;8.606;2022-10-15T07:25:51;15.40;99.90
10411;DHT22;5251;52.112;8.606;2022-10-15T07:28:17;15.50;99.90
10411;DHT22;5251;52.112;8.606;2022-10-15T07:30:42;15.60;99.90
10411;DHT22;5251;52.112;8.606;2022-10-15T07:33:08;15.70;99.90
10411;DHT22;5251;52.112;8.606;2022-10-15T07:35:36;15.70;99.90
10411;DHT22;5251;52.112;8.606;2022-10-15T07:38:02;15.80;99.90
10411;DHT22;5251;52.112;8.606;2022-10-15T07:40:28;15.90;99.90
10411;DHT22;5251;52.112;8.606;2022-10-15T07:42:57;16.00;99.90
10411;DHT22;5251;52.112;8.606;2022-10-15T07:45:24;16.10;99.90
10411;DHT22;5251;52.112;8.606;2022-10-15T07:47:50;16.20;99.90
10411;DHT22;5251;52.112;8.606;2022-10-15T07:50:16;16.30;99.90
10411;DHT22;5251;52.112;8.606;2022-10-15T07:52:42;16.40;99.90
10411;DHT22;5251;52.112;8.606;2022-10-15T07:55:07;16.40;99.90
10411;DHT22;5251;52.112;8.606;2022-10-15T07:57:33;16.50;99.90
10411;DHT22;5251;52.112;8.606;2022-10-15T07:59:59;16.60;99.90
10411;DHT22;5251;52.112;8.606;2022-10-15T08:02:24;16.70;99.90
10411;DHT22;5251;52.112;8.606;2022-10-15T08:04:50;16.80;99.90
10411;DHT22;5251;52.112;8.606;2022-10-15T08:07:16;16.90;99.90
10411;DHT22;5251;52.112;8.606;2022-10-15T08:09:42;16.90;99.90
10411;DHT22;5251;52.112;8.606;2022-10-15T08:12:07;17.00;99.90
10411;DHT22;5251;52.112;8.606;2022-10-15T08:14:34;17.10;99.90
10411;DHT22;5251;52.112;8.606;2022-10-15T08:17:04;17.20;99.90
10411;DHT22;5251;52.112;8.606;2022-10-15T08:19:29;17.30;99.90
10411;DHT22;5251;52.112;8.606;2022-10-15T08:21:55;17.30;99.90
10411;DHT22;5251;52.112;8.606;2022-10-15T08:24:21;17.50;99.90
10411;DHT22;5251;52.112;8.606;2022-10-15T08:26:47;17.50;99.90
10411;DHT22;5251;52.112;8.606;2022-10-15T08:29:13;17.60;99.90
10411;DHT22;5251;52.112;8.606;2022-10-15T08:31:39;17.70;99.90
10411;DHT22;5251;52.112;8.606;2022-10-15T08:34:05;17.70;99.90
10411;DHT22;5251;52.112;8.606;2022-10-15T08:36:31;17.80;99.90
10411;DHT22;5251;52.112;8.606;2022-10-15T08:38:56;17.90;99.90
10411;DHT22;5251;52.112;8.606;2022-10-15T08:43:54;18.10;99.90
10411;DHT22;5251;52.112;8.606;2022-10-15T08:46:36;18.20;99.90
10411;DHT22;5251;52.112;8.606;2022-10-15T08:49:03;18.40;99.90
10411;DHT22;5251;52.112;8.606;2022-10-15T08:51:37;18.40;99.90
10411;DHT22;5251;52.112;8.606;2022-10-15T08:54:05;18.50;99.90
10411;DHT22;5251;52.112;8.606;2022-10-15T08:56:37;18.60;99.90
10411;DHT22;5251;52.112;8.606;2022-10-15T08:59:23;18.60;99.90
10411;DHT22;5251;52.112;8.606;2022-10-15T09:02:17;18.70;99.90
10411;DHT22;5251;52.112;8.606;2022-10-15T09:07:41;18.70;99.90
10411;DHT22;5251;52.112;8.606;2022-10-15T09:10:17;18.60;99.90
10411;DHT22;5251;52.112;8.606;2022-10-15T09:12:58;18.60;99.90
10411;DHT22;5251;52.112;8.606;2022-10-15T09:15:26;18.50;99.90
10411;DHT22;5251;52.112;8.606;2022-10-15T09:17:53;18.50;99.90
10411;DHT22;5251;52.112;8.606;2022-10-15T09:20:39;18.50;99.90
10411;DHT22;5251;52.112;8.606;2022-10-15T09:23:15;18.40;99.90
10411;DHT22;5251;52.112;8.606;2022-10-15T09:25:43;18.40;99.90
10411;DHT22;5251;52.112;8.606;2022-10-15T09:28:14;18.40;99.90
10411;DHT22;5251;52.112;8.606;2022-10-15T09:30:50;18.40;99.90
10411;DHT22;5251;52.112;8.606;2022-10-15T09:36:49;18.30;99.90
10411;DHT22;5251;52.112;8.606;2022-10-15T09:44:35;18.30;99.90
10411;DHT22;5251;52.112;8.606;2022-10-15T09:47:34;18.30;99.90
10411;DHT22;5251;52.112;8.606;2022-10-15T09:50:00;18.30;99.90
10411;DHT22;5251;52.112;8.606;2022-10-15T09:52:46;18.40;99.90
10411;DHT22;5251;52.112;8.606;2022-10-15T09:58:16;18.50;99.90
10411;DHT22;5251;52.112;8.606;2022-10-15T10:01:04;18.50;99.90
10411;DHT22;5251;52.112;8.606;2022-10-15T10:03:32;18.50;99.90
10411;DHT22;5251;52.112;8.606;2022-10-15T10:06:03;18.60;99.90
10411;DHT22;5251;52.112;8.606;2022-10-15T10:09:18;18.70;99.90
10411;DHT22;5251;52.112;8.606;2022-10-15T10:11:19;18.70;99.90
10411;DHT22;5251;52.112;8.606;2022-10-15T10:13:52;18.80;99.90
10411;DHT22;5251;52.112;8.606;2022-10-15T10:16:20;18.90;99.90
10411;DHT22;5251;52.112;8.606;2022-10-15T10:19:12;19.00;99.90
10411;DHT22;5251;52.112;8.606;2022-10-15T10:21:39;19.10;99.90
10411;DHT22;5251;52.112;8.606;2022-10-15T10:24:36;19.20;99.90
10411;DHT22;5251;52.112;8.606;2022-10-15T10:27:02;19.30;99.90
10411;DHT22;5251;52.112;8.606;2022-10-15T10:29:30;19.40;99.90
10411;DHT22;5251;52.112;8.606;2022-10-15T10:32:11;19.50;99.90
10411;DHT22;5251;52.112;8.606;2022-10-15T10:34:42;19.60;99.90
10411;DHT22;5251;52.112;8.606;2022-10-15T10:37:08;19.80;99.90
10411;DHT22;5251;52.112;8.606;2022-10-15T10:39:35;19.90;99.90
10411;DHT22;5251;52.112;8.606;2022-10-15T10:42:21;19.90;99.90
10411;DHT22;5251;52.112;8.606;2022-10-15T10:44:48;20.10;99.90
10411;DHT22;5251;52.112;8.606;2022-10-15T10:47:18;20.20;99.90
10411;DHT22;5251;52.112;8.606;2022-10-15T10:49:52;20.30;99.90
10411;DHT22;5251;52.112;8.606;2022-10-15T10:52:32;20.40;99.90
10411;DHT22;5251;52.112;8.606;2022-10-15T10:55:09;20.60;99.90
10411;DHT22;5251;52.112;8.606;2022-10-15T10:57:58;20.70;99.90
10411;DHT22;5251;52.112;8.606;2022-10-15T11:00:50;20.70;99.90
10411;DHT22;5251;52.112;8.606;2022-10-15T11:06:17;21.00;99.90
10411;DHT22;5251;52.112;8.606;2022-10-15T11:09:06;21.10;99.90
10411;DHT22;5251;52.112;8.606;2022-10-15T11:11:57;21.10;99.90
10411;DHT22;5251;52.112;8.606;2022-10-15T11:14:47;21.20;99.90
10411;DHT22;5251;52.112;8.606;2022-10-15T11:20:26;21.10;99.90
10411;DHT22;5251;52.112;8.606;2022-10-15T11:25:48;21.10;99.90
10411;DHT22;5251;52.112;8.606;2022-10-15T11:31:14;21.10;99.90
10411;DHT22;5251;52.112;8.606;2022-10-15T11:36:37;21.20;99.90
10411;DHT22;5251;52.112;8.606;2022-10-15T11:47:25;21.50;99.90
10411;DHT22;5251;52.112;8.606;2022-10-15T11:56:10;21.60;99.90
10411;DHT22;5251;52.112;8.606;2022-10-15T11:58:40;21.60;99.90
10411;DHT22;5251;52.112;8.606;2022-10-15T12:01:32;21.60;99.90
10411;DHT22;5251;52.112;8.606;2022-10-15T12:04:04;21.60;99.90
10411;DHT22;5251;52.112;8.606;2022-10-15T12:06:35;21.60;99.90
10411;DHT22;5251;52.112;8.606;2022-10-15T12:09:02;21.60;99.90
10411;DHT22;5251;52.112;8.606;2022-10-15T12:14:24;21.60;99.90
10411;DHT22;5251;52.112;8.606;2022-10-15T12:16:57;21.60;99.90
10411;DHT22;5251;52.112;8.606;2022-10-15T12:19:46;21.70;99.90
10411;DHT22;5251;52.112;8.606;2022-10-15T12:28:03;21.90;99.90
10411;DHT22;5251;52.112;8.606;2022-10-15T12:30:34;22.00;99.90
10411;DHT22;5251;52.112;8.606;2022-10-15T12:33:18;22.10;99.90
10411;DHT22;5251;52.112;8.606;2022-10-15T12:35:59;22.20;99.90
10411;DHT22;5251;52.112;8.606;2022-10-15T12:38:29;22.20;99.90
10411;DHT22;5251;52.112;8.606;2022-10-15T12:41:18;22.30;99.90
10411;DHT22;5251;52.112;8.606;2022-10-15T12:43:50;22.30;99.90
10411;DHT22;5251;52.112;8.606;2022-10-15T12:46:18;22.20;99.90
10411;DHT22;5251;52.112;8.606;2022-10-15T12:48:45;22.20;99.90
10411;DHT22;5251;52.112;8.606;2022-10-15T12:53:46;22.30;99.90
10411;DHT22;5251;52.112;8.606;2022-10-15T12:56:20;22.40;99.90
10411;DHT22;5251;52.112;8.606;2022-10-15T12:58:48;22.40;99.90
10411;DHT22;5251;52.112;8.606;2022-10-15T13:08:48;22.50;99.90
10411;DHT22;5251;52.112;8.606;2022-10-15T13:11:21;22.50;99.90
10411;DHT22;5251;52.112;8.606;2022-10-15T13:13:50;22.40;99.90
10411;DHT22;5251;52.112;8.606;2022-10-15T13:16:17;22.40;99.90
10411;DHT22;5251;52.112;8.606;2022-10-15T13:18:49;22.40;99.90
10411;DHT22;5251;52.112;8.606;2022-10-15T13:21:15;22.40;99.90
10411;DHT22;5251;52.112;8.606;2022-10-15T13:23:49;22.40;99.90
10411;DHT22;5251;52.112;8.606;2022-10-15T13:28:42;22.40;99.90
10411;DHT22;5251;52.112;8.606;2022-10-15T13:31:30;22.50;99.90
10411;DHT22;5251;52.112;8.606;2022-10-15T13:34:01;22.40;99.90
10411;DHT22;5251;52.112;8.606;2022-10-15T13:36:33;22.40;99.90
10411;DHT22;5251;52.112;8.606;2022-10-15T13:39:03;22.40;99.90
10411;DHT22;5251;52.112;8.606;2022-10-15T13:41:33;22.30;99.90
10411;DHT22;5251;52.112;8.606;2022-10-15T13:43:59;22.20;99.90
10411;DHT22;5251;52.112;8.606;2022-10-15T13:46:31;22.20;99.90
10411;DHT22;5251;52.112;8.606;2022-10-15T13:49:02;22.10;99.90
10411;DHT22;5251;52.112;8.606;2022-10-15T13:51:34;22.00;99.90
10411;DHT22;5251;52.112;8.606;2022-10-15T13:54:11;22.00;99.90
10411;DHT22;5251;52.112;8.606;2022-10-15T13:56:42;21.90;99.90
10411;DHT22;5251;52.112;8.606;2022-10-15T13:59:15;21.80;99.90
10411;DHT22;5251;52.112;8.606;2022-10-15T14:01:51;21.80;99.90
10411;DHT22;5251;52.112;8.606;2022-10-15T14:04:20;21.70;99.90
10411;DHT22;5251;52.112;8.606;2022-10-15T14:06:55;21.70;99.90
10411;DHT22;5251;52.112;8.606;2022-10-15T14:09:34;21.70;99.90
10411;DHT22;5251;52.112;8.606;2022-10-15T14:12:00;21.70;99.90
10411;DHT22;5251;52.112;8.606;2022-10-15T14:15:01;21.70;99.90
10411;DHT22;5251;52.112;8.606;2022-10-15T14:19:48;21.60;99.90
10411;DHT22;5251;52.112;8.606;2022-10-15T14:22:17;21.60;99.90
10411;DHT22;5251;52.112;8.606;2022-10-15T14:24:43;21.60;99.90
10411;DHT22;5251;52.112;8.606;2022-10-15T14:27:19;21.60;99.90
10411;DHT22;5251;52.112;8.606;2022-10-15T14:29:47;21.50;99.90
10411;DHT22;5251;52.112;8.606;2022-10-15T14:32:27;21.50;99.90
10411;DHT22;5251;52.112;8.606;2022-10-15T14:34:57;21.50;99.90
10411;DHT22;5251;52.112;8.606;2022-10-15T14:43:12;21.50;99.90
10411;DHT22;5251;52.112;8.606;2022-10-15T14:45:35;21.40;99.90
10411;DHT22;5251;52.112;8.606;2022-10-15T14:48:24;21.50;99.90
10411;DHT22;5251;52.112;8.606;2022-10-15T14:50:50;21.40;99.90
10411;DHT22;5251;52.112;8.606;2022-10-15T14:53:24;21.40;99.90
10411;DHT22;5251;52.112;8.606;2022-10-15T14:55:54;21.30;99.90
10411;DHT22;5251;52.112;8.606;2022-10-15T14:58:22;21.30;99.90
10411;DHT22;5251;52.112;8.606;2022-10-15T15:01:03;21.30;99.90
10411;DHT22;5251;52.112;8.606;2022-10-15T15:03:49;21.20;99.90
10411;DHT22;5251;52.112;8.606;2022-10-15T15:06:15;21.20;99.90
10411;DHT22;5251;52.112;8.606;2022-10-15T15:08:40;21.10;99.90
10411;DHT22;5251;52.112;8.606;2022-10-15T15:11:10;21.10;99.90
10411;DHT22;5251;52.112;8.606;2022-10-15T15:13:39;21.10;99.90
10411;DHT22;5251;52.112;8.606;2022-10-15T15:16:05;21.10;99.90
10411;DHT22;5251;52.112;8.606;2022-10-15T15:18:31;21.00;99.90
10411;DHT22;5251;52.112;8.606;2022-10-15T15:21:02;21.00;99.90
10411;DHT22;5251;52.112;8.606;2022-10-15T15:23:29;21.00;99.90
10411;DHT22;5251;52.112;8.606;2022-10-15T15:25:55;21.00;99.90
10411;DHT22;5251;52.112;8.606;2022-10-15T15:28:23;21.00;99.90
10411;DHT22;5251;52.112;8.606;2022-10-15T15:30:57;20.90;99.90
10411;DHT22;5251;52.112;8.606;2022-10-15T15:33:24;20.90;99.90
10411;DHT22;5251;52.112;8.606;2022-10-15T15:35:52;20.90;99.90
10411;DHT22;5251;52.112;8.606;2022-10-15T15:38:23;20.90;99.90
10411;DHT22;5251;52.112;8.606;2022-10-15T15:41:12;20.90;99.90
10411;DHT22;5251;52.112;8.606;2022-10-15T15:43:38;20.90;99.90
10411;DHT22;5251;52.112;8.606;2022-10-15T15:46:04;20.80;99.90
10411;DHT22;5251;52.112;8.606;2022-10-15T15:48:30;20.80;99.90
10411;DHT22;5251;52.112;8.606;2022-10-15T15:51:00;20.80;99.90
10411;DHT22;5251;52.112;8.606;2022-10-15T15:53:26;20.80;99.90
10411;DHT22;5251;52.112;8.606;2022-10-15T15:55:51;20.80;99.90
10411;DHT22;5251;52.112;8.606;2022-10-15T15:58:17;20.70;99.90
10411;DHT22;5251;52.112;8.606;2022-10-15T16:00:44;20.70;99.90
10411;DHT22;5251;52.112;8.606;2022-10-15T16:03:13;20.70;99.90
10411;DHT22;5251;52.112;8.606;2022-10-15T16:05:39;20.60;99.90
10411;DHT22;5251;52.112;8.606;2022-10-15T16:08:06;20.60;99.90
10411;DHT22;5251;52.112;8.606;2022-10-15T16:10:32;20.60;99.90
10411;DHT22;5251;52.112;8.606;2022-10-15T16:12:58;20.60;99.90
10411;DHT22;5251;52.112;8.606;2022-10-15T16:15:23;20.50;99.90
10411;DHT22;5251;52.112;8.606;2022-10-15T16:17:49;20.50;99.90
10411;DHT22;5251;52.112;8.606;2022-10-15T16:20:14;20.40;99.90
10411;DHT22;5251;52.112;8.606;2022-10-15T16:22:40;20.40;99.90
10411;DHT22;5251;52.112;8.606;2022-10-15T16:25:07;20.30;99.90
10411;DHT22;5251;52.112;8.606;2022-10-15T16:27:33;20.30;99.90
10411;DHT22;5251;52.112;8.606;2022-10-15T16:30:00;20.20;99.90
10411;DHT22;5251;52.112;8.606;2022-10-15T16:32:26;20.20;99.90
10411;DHT22;5251;52.112;8.606;2022-10-15T16:34:52;20.10;99.90
10411;DHT22;5251;52.112;8.606;2022-10-15T16:37:17;20.10;99.90
10411;DHT22;5251;52.112;8.606;2022-10-15T16:39:43;20.10;99.90
10411;DHT22;5251;52.112;8.606;2022-10-15T16:42:09;20.10;99.90
10411;DHT22;5251;52.112;8.606;2022-10-15T16:44:34;20.00;99.90
10411;DHT22;5251;52.112;8.606;2022-10-15T16:47:00;20.00;99.90
10411;DHT22;5251;52.112;8.606;2022-10-15T16:49:26;20.00;99.90
10411;DHT22;5251;52.112;8.606;2022-10-15T16:51:52;20.00;99.90
10411;DHT22;5251;52.112;8.606;2022-10-15T16:54:17;20.00;99.90
10411;DHT22;5251;52.112;8.606;2022-10-15T16:56:43;20.00;99.90
10411;DHT22;5251;52.112;8.606;2022-10-15T16:59:09;19.90;99.90
10411;DHT22;5251;52.112;8.606;2022-10-15T17:01:35;19.90;99.90
10411;DHT22;5251;52.112;8.606;2022-10-15T17:04:01;19.90;99.90
10411;DHT22;5251;52.112;8.606;2022-10-15T17:06:29;19.90;99.90
10411;DHT22;5251;52.112;8.606;2022-10-15T17:08:56;19.90;99.90
10411;DHT22;5251;52.112;8.606;2022-10-15T17:11:33;19.80;99.90
10411;DHT22;5251;52.112;8.606;2022-10-15T17:14:02;19.80;99.90
10411;DHT22;5251;52.112;8.606;2022-10-15T17:16:52;19.70;99.90
10411;DHT22;5251;52.112;8.606;2022-10-15T17:19:19;19.70;99.90
10411;DHT22;5251;52.112;8.606;2022-10-15T17:21:46;19.60;99.90
10411;DHT22;5251;52.112;8.606;2022-10-15T17:24:13;19.60;99.90
10411;DHT22;5251;52.112;8.606;2022-10-15T17:26:41;19.50;99.90
10411;DHT22;5251;52.112;8.606;2022-10-15T17:29:09;19.50;99.90
10411;DHT22;5251;52.112;8.606;2022-10-15T17:31:35;19.40;99.90
10411;DHT22;5251;52.112;8.606;2022-10-15T17:34:06;19.40;99.90
10411;DHT22;5251;52.112;8.606;2022-10-15T17:36:39;19.40;99.90
10411;DHT22;5251;52.112;8.606;2022-10-15T17:39:10;19.30;99.90